Miramar MCAS, CA

1:52 PM PDT on July 21, 2017 (GMT -0700)
Miramar Marine Corps Air Station-Mitscher | | Change Station
Active Advisory: Beach Hazard Statement

Elev 476 ft 32.87 °N, 117.14 °W | Updated 57 minutes ago

Clear
Clear
84 °F
Feels Like 84 °F
N
6
Wind Variable Wind from Variable

Today
High -- | Low -- °F
--% Chance of Precip.
Yesterday
High -- | Low -- °F
Precip. -- in
Pressure 29.93 in
Visibility 10.0 miles
Clouds Clear
Heat Index 84 °F
Dew Point 60 °F
Humidity 44%
Rainfall 0.00 in
Snow Depth Not available.
5:55 AM 7:54 PM
Waning Crescent, 4% visible
METAR KNKX 211955Z VRB05KT 10SM CLR 29/16 A2995 RMK AO2 SLP135 T02890156 $
Pressure 29.93 in
Visibility 10.0 miles
Clouds Clear
Heat Index 84 °F
Dew Point 60 °F
Humidity 44%
Rainfall 0.00 in
Snow Depth Not available.
5:55 AM 7:54 PM
Waning Crescent, 4% visible
METAR KNKX 211955Z VRB05KT 10SM CLR 29/16 A2995 RMK AO2 SLP135 T02890156 $

Get Your Daily Forecast Email!

Thanks for signing up!

Be on the lookout for a verification email in your inbox.

You'll start receiving severe weather alerts in your inbox..

×

10-Day Weather Forecast

Almanac

Astronomy

Jul. 21, 2017 Rise Set
Actual Time
Civil Twilight
Nautical Twilight
Astronomical Twilight
Moon
Length of Visible Light
Length of Day
Tomorrow will be .
, % of the Moon is Illuminated

Today's Extremes

State Highs State Lows

Community

WunderPhotos

Category 6

Welcome to Category 6. This is the collective home for Weather Underground's featured writeups by Dr. Jeff Masters (right), Bob Henson (left), Chris Burt, and other regular contributors.

Nearby

Air Quality

  Air Quality AQ Index Pollutant
Not available.

Snow Depth

Station Depth Elevation

Earthquake Activity

City Distance Mag. Time & Date
Minimum magnitude displayed is 2.5.

Coastal Water Temperatures

Place Temperature

Stations

Nearby Weather Stations

Station Location Temp. Windchill Dew Point Humidity Wind Precip. Elev Updated Type
                   

Watches & Warnings

Beach Hazard Statement
Issued: 12:57 PM PDT Jul. 21, 2017 – National Weather Service

... Beach hazards statement remains in effect through Sunday
evening...

* tides... highest tide of 6.9 to 7.1 feet at around 810 PM tonight... 7
to 7.2 feet at around 9 PM Saturday... and 6.9 to 7.1 feet at
around 945 PM Sunday.

* Timing... minor tidal overflow possible within an hour before
and after the time of highest tide each night.

* Impacts... minor flooding of low-lying coastal areas and beach
adjacent roads and parking lots. Possible impacted locations
include... but are not limited to... Sunset Beach... Oceanside...
Cardiff and La Jolla shores.

Precautionary/preparedness actions...

A beach hazards statement for minor tidal overflow means that
high astronomical tides possibly in combination with above normal
surf will likely produce minor flooding of low-lying areas along
the beach such as beach parking lots. Coastal officials should
take the necessary precautionary measures to safeguard their
beaches.